Time;durP1;ratioP1;P1;durP2;ratioP2;P2;SDS_P1;SDS_P2;PMS_P1;PMS_P2;Temp;Humidity;BMP_temperature;BMP_pressure;BME280_temperature;BME280_humidity;BME280_pressure;Samples;Min_cycle;Max_cycle;Signal;HPM_P1;HPM_P2
2021/03/10 00:01:05;;;;;;;0.00;0.00;;;5.00;1.00;;;;;;6212759;23;20384;-65
2021/03/10 00:03:31;;;;;;;0.00;0.00;;;5.00;1.00;;;;;;6212574;23;20371;-66
2021/03/10 00:05:57;;;;;;;0.00;0.00;;;5.00;1.00;;;;;;6212831;23;20715;-66
2021/03/10 00:08:24;;;;;;;0.00;0.00;;;5.00;1.00;;;;;;6212692;23;20734;-66
2021/03/10 00:10:50;;;;;;;0.00;0.00;;;5.00;1.00;;;;;;6213128;23;20387;-66
2021/03/10 00:13:16;;;;;;;0.00;0.00;;;5.10;1.00;;;;;;6212641;23;20692;-67
2021/03/10 00:15:42;;;;;;;0.00;0.00;;;5.10;1.00;;;;;;6213034;23;20376;-66
2021/03/10 00:18:10;;;;;;;0.00;0.00;;;5.20;1.00;;;;;;6212143;23;20383;-66
2021/03/10 00:20:36;;;;;;;0.00;0.00;;;5.20;1.00;;;;;;6212908;23;20379;-66
2021/03/10 00:23:02;;;;;;;0.00;0.00;;;5.20;1.00;;;;;;6213025;23;20378;-66
2021/03/10 00:25:29;;;;;;;0.00;0.00;;;5.20;1.00;;;;;;6212775;23;20548;-67
2021/03/10 00:27:55;;;;;;;0.00;0.00;;;5.20;1.00;;;;;;6212637;23;20372;-66
2021/03/10 00:30:22;;;;;;;0.00;0.00;;;5.10;1.00;;;;;;6213961;23;20391;-66
2021/03/10 00:32:48;;;;;;;0.00;0.00;;;5.10;1.00;;;;;;6217095;23;20371;-66
2021/03/10 00:35:15;;;;;;;0.00;0.00;;;5.10;1.00;;;;;;6212636;23;20925;-67
2021/03/10 00:37:41;;;;;;;0.00;0.00;;;5.10;1.00;;;;;;6212423;23;20387;-66
2021/03/10 00:40:08;;;;;;;0.00;0.00;;;5.10;1.00;;;;;;6212089;23;20371;-66
2021/03/10 00:42:34;;;;;;;0.00;0.00;;;5.00;1.00;;;;;;6212873;23;20372;-66
2021/03/10 00:45:00;;;;;;;0.00;0.00;;;4.90;1.00;;;;;;6212307;23;20865;-66
2021/03/10 00:47:26;;;;;;;0.00;0.00;;;4.60;1.00;;;;;;6213013;23;20371;-66
2021/03/10 00:49:52;;;;;;;0.00;0.00;;;4.80;1.00;;;;;;6214429;23;20379;-67
2021/03/10 00:52:19;;;;;;;0.00;0.00;;;4.80;1.00;;;;;;6214717;23;20479;-66
2021/03/10 00:54:45;;;;;;;0.00;0.00;;;4.70;1.00;;;;;;6214622;23;20371;-66
2021/03/10 00:57:11;;;;;;;0.00;0.00;;;4.60;1.00;;;;;;6214198;23;20387;-66
2021/03/10 00:59:37;;;;;;;0.00;0.00;;;4.70;1.00;;;;;;6214404;23;20372;-66
2021/03/10 01:02:04;;;;;;;0.00;0.00;;;4.60;1.00;;;;;;6214427;23;20379;-66
2021/03/10 01:04:31;;;;;;;0.00;0.00;;;4.60;1.00;;;;;;6214403;23;20383;-68
2021/03/10 01:06:57;;;;;;;0.00;0.00;;;4.70;1.00;;;;;;6214017;23;20378;-65
2021/03/10 01:09:24;;;;;;;0.00;0.00;;;4.70;1.00;;;;;;6214278;23;20379;-66
2021/03/10 01:11:51;;;;;;;0.00;0.00;;;4.70;1.00;;;;;;6214181;23;20375;-66
2021/03/10 01:14:17;;;;;;;0.00;0.00;;;4.70;1.00;;;;;;6213944;23;20376;-67
2021/03/10 01:16:43;;;;;;;0.00;0.00;;;4.60;1.00;;;;;;6213975;23;20474;-66
2021/03/10 01:19:10;;;;;;;0.00;0.00;;;4.50;1.00;;;;;;6214223;23;20372;-66
2021/03/10 01:21:36;;;;;;;0.00;0.00;;;4.50;1.00;;;;;;6214401;23;20426;-66
2021/03/10 01:24:02;;;;;;;0.00;0.00;;;4.50;1.00;;;;;;6214095;23;20379;-66
2021/03/10 01:26:29;;;;;;;0.00;0.00;;;4.50;1.00;;;;;;6213919;23;20742;-67
2021/03/10 01:28:56;;;;;;;0.00;0.00;;;4.40;1.00;;;;;;6213786;23;20376;-66
2021/03/10 01:31:22;;;;;;;0.00;0.00;;;4.30;1.00;;;;;;6214316;23;20427;-66
2021/03/10 01:33:48;;;;;;;0.00;0.00;;;4.10;1.00;;;;;;6213901;23;20376;-67
2021/03/10 01:36:14;;;;;;;0.00;0.00;;;4.00;1.00;;;;;;6214069;23;20398;-66
2021/03/10 01:38:40;;;;;;;0.00;0.00;;;4.00;1.00;;;;;;6213804;23;20372;-66
2021/03/10 01:41:06;;;;;;;0.00;0.00;;;4.00;1.00;;;;;;6213950;23;20379;-67
2021/03/10 01:43:34;;;;;;;0.00;0.00;;;4.10;1.00;;;;;;6214069;23;20392;-67
2021/03/10 01:46:00;;;;;;;0.00;0.00;;;4.00;1.00;;;;;;6213901;23;20410;-67
2021/03/10 01:48:27;;;;;;;0.00;0.00;;;4.00;1.00;;;;;;6213640;23;20398;-66
2021/03/10 01:50:53;;;;;;;0.00;0.00;;;4.00;1.00;;;;;;6213865;23;20379;-66
2021/03/10 01:53:20;;;;;;;0.00;0.00;;;4.10;1.00;;;;;;6214627;23;20389;-66
2021/03/10 01:55:47;;;;;;;0.00;0.00;;;4.20;1.00;;;;;;6213882;23;20438;-67
2021/03/10 01:58:14;;;;;;;0.00;0.00;;;4.30;1.00;;;;;;6212953;23;20384;-66
2021/03/10 02:00:41;;;;;;;0.00;0.00;;;4.30;1.00;;;;;;6214113;23;20437;-68
2021/03/10 02:03:07;;;;;;;0.00;0.00;;;4.40;1.00;;;;;;6213998;23;20371;-66
2021/03/10 02:05:33;;;;;;;0.00;0.00;;;4.50;1.00;;;;;;6214252;23;20426;-65
2021/03/10 02:08:15;;;;;;;0.00;0.00;;;4.60;1.00;;;;;;6213152;23;20372;-66
2021/03/10 02:10:50;;;;;;;0.00;0.00;;;4.50;1.00;;;;;;6213407;23;21111;-66
2021/03/10 02:13:24;;;;;;;0.00;0.00;;;4.50;1.00;;;;;;6213404;23;20395;-67
2021/03/10 02:16:00;;;;;;;0.00;0.00;;;4.40;1.00;;;;;;6213877;23;20392;-67
2021/03/10 02:18:30;;;;;;;0.00;0.00;;;4.50;1.00;;;;;;6213017;23;20384;-66
2021/03/10 02:20:59;;;;;;;0.00;0.00;;;4.50;1.00;;;;;;6213496;23;20379;-67
2021/03/10 02:23:55;;;;;;;0.00;0.00;;;4.60;1.00;;;;;;6213587;23;20386;-66
2021/03/10 02:26:40;;;;;;;0.00;0.00;;;4.60;1.00;;;;;;6213611;23;20381;-67
2021/03/10 02:29:09;;;;;;;0.00;0.00;;;4.70;1.00;;;;;;6213477;23;20388;-66
2021/03/10 02:31:38;;;;;;;0.00;0.00;;;4.60;1.00;;;;;;6213723;23;20426;-66
2021/03/10 02:34:06;;;;;;;0.00;0.00;;;4.60;1.00;;;;;;6213729;23;20382;-68
2021/03/10 02:36:34;;;;;;;0.00;0.00;;;4.60;1.00;;;;;;6213027;23;20405;-67
2021/03/10 02:39:02;;;;;;;0.00;0.00;;;4.60;1.00;;;;;;6213536;23;20383;-66
2021/03/10 02:41:29;;;;;;;0.00;0.00;;;4.60;1.00;;;;;;6213773;23;20410;-66
2021/03/10 02:43:56;;;;;;;0.00;0.00;;;4.50;1.00;;;;;;6214276;23;20367;-66
2021/03/10 02:46:24;;;;;;;0.00;0.00;;;4.50;1.00;;;;;;6213631;23;20382;-70
2021/03/10 02:48:51;;;;;;;0.00;0.00;;;4.60;1.00;;;;;;6213431;23;20378;-66
2021/03/10 02:51:18;;;;;;;0.00;0.00;;;4.60;1.00;;;;;;6213237;23;20380;-67
2021/03/10 02:53:45;;;;;;;0.00;0.00;;;4.60;1.00;;;;;;6213635;23;20372;-66
2021/03/10 02:56:12;;;;;;;0.00;0.00;;;4.50;1.00;;;;;;6213223;23;20762;-68
2021/03/10 02:58:38;;;;;;;0.00;0.00;;;4.50;1.00;;;;;;6212731;23;20441;-66
2021/03/10 03:01:05;;;;;;;0.00;0.00;;;4.50;1.00;;;;;;6213192;23;20383;-66
2021/03/10 03:03:32;;;;;;;0.00;0.00;;;4.50;1.00;;;;;;6213033;23;20429;-66
2021/03/10 03:05:58;;;;;;;0.00;0.00;;;4.50;1.00;;;;;;6213372;23;20379;-67
2021/03/10 03:08:25;;;;;;;0.00;0.00;;;4.50;1.00;;;;;;6212601;23;20688;-66
2021/03/10 03:10:52;;;;;;;0.00;0.00;;;4.50;1.00;;;;;;6212995;23;20380;-66
2021/03/10 03:13:21;;;;;;;0.00;0.00;;;4.50;1.00;;;;;;6212812;23;20383;-66
2021/03/10 03:15:52;;;;;;;0.00;0.00;;;4.50;1.00;;;;;;6213324;23;20692;-68
2021/03/10 03:18:20;;;;;;;0.00;0.00;;;4.60;1.00;;;;;;6212537;23;20383;-65
2021/03/10 03:20:47;;;;;;;0.00;0.00;;;4.50;1.00;;;;;;6213280;23;20371;-66
2021/03/10 03:23:13;;;;;;;0.00;0.00;;;4.50;1.00;;;;;;6213370;23;20372;-66
2021/03/10 03:25:41;;;;;;;0.00;0.00;;;4.50;1.00;;;;;;6212966;23;20379;-66
2021/03/10 03:28:10;;;;;;;0.00;0.00;;;4.40;1.00;;;;;;6212811;23;20406;-66
2021/03/10 03:30:38;;;;;;;0.00;0.00;;;4.40;1.00;;;;;;6212733;23;20375;-67
2021/03/10 03:33:09;;;;;;;0.00;0.00;;;4.40;1.00;;;;;;6213184;23;20375;-68
2021/03/10 03:35:35;;;;;;;0.00;0.00;;;4.50;1.00;;;;;;6213119;23;20880;-66
2021/03/10 03:38:04;;;;;;;0.00;0.00;;;4.50;1.00;;;;;;6212941;23;20706;-66
2021/03/10 03:40:30;;;;;;;0.00;0.00;;;4.50;1.00;;;;;;6212545;23;21214;-66
2021/03/10 03:42:56;;;;;;;0.00;0.00;;;4.50;1.00;;;;;;6212741;23;20380;-67
2021/03/10 03:45:23;;;;;;;0.00;0.00;;;4.50;1.00;;;;;;6212685;23;20846;-66
2021/03/10 03:47:50;;;;;;;0.00;0.00;;;4.40;1.00;;;;;;6212637;23;20375;-66
2021/03/10 03:50:16;;;;;;;0.00;0.00;;;4.40;1.00;;;;;;6212694;23;20375;-67
2021/03/10 03:52:43;;;;;;;0.00;0.00;;;4.40;1.00;;;;;;6212686;23;20371;-68
2021/03/10 03:55:12;;;;;;;0.00;0.00;;;4.40;1.00;;;;;;6212661;23;20388;-67
2021/03/10 03:57:38;;;;;;;0.00;0.00;;;4.40;1.00;;;;;;6212042;23;20858;-66
2021/03/10 04:00:06;;;;;;;0.00;0.00;;;4.40;1.00;;;;;;6212989;23;20379;-66
2021/03/10 04:02:33;;;;;;;0.00;0.00;;;4.40;1.00;;;;;;6215621;23;20394;-67
2021/03/10 04:04:59;;;;;;;0.00;0.00;;;4.30;1.00;;;;;;6213128;23;20404;-66
2021/03/10 04:07:25;;;;;;;0.00;0.00;;;4.30;1.00;;;;;;6212601;23;20422;-67
2021/03/10 04:09:51;;;;;;;0.00;0.00;;;4.10;1.00;;;;;;6212700;23;20375;-67
2021/03/10 04:12:18;;;;;;;0.00;0.00;;;4.00;1.00;;;;;;6212981;23;20711;-66
2021/03/10 04:14:44;;;;;;;0.00;0.00;;;3.90;1.00;;;;;;6212992;23;20371;-67
2021/03/10 04:17:11;;;;;;;0.00;0.00;;;3.80;1.00;;;;;;6213437;23;20380;-67
2021/03/10 04:19:37;;;;;;;0.00;0.00;;;3.80;1.00;;;;;;6212665;23;20380;-66
2021/03/10 04:22:03;;;;;;;0.00;0.00;;;3.80;1.00;;;;;;6213342;23;20371;-66
2021/03/10 04:24:29;;;;;;;0.00;0.00;;;3.80;1.00;;;;;;6214108;23;20375;-68
2021/03/10 04:26:55;;;;;;;0.00;0.00;;;3.70;1.00;;;;;;6214471;23;20371;-67
2021/03/10 04:29:22;;;;;;;0.00;0.00;;;3.80;1.00;;;;;;6214677;23;20433;-67
2021/03/10 04:31:48;;;;;;;0.00;0.00;;;3.80;1.00;;;;;;6214759;23;20375;-66
2021/03/10 04:34:15;;;;;;;0.00;0.00;;;3.50;1.00;;;;;;6215233;23;20396;-66
2021/03/10 04:36:41;;;;;;;0.00;0.00;;;3.80;1.00;;;;;;6215124;23;20680;-66
2021/03/10 04:39:07;;;;;;;0.00;0.00;;;3.80;1.00;;;;;;6214275;23;20916;-65
2021/03/10 04:41:33;;;;;;;0.00;0.00;;;3.90;1.00;;;;;;6214092;23;20371;-65
2021/03/10 04:43:59;;;;;;;0.00;0.00;;;3.90;1.00;;;;;;6214440;23;21034;-66
2021/03/10 04:46:26;;;;;;;0.00;0.00;;;4.00;1.00;;;;;;6214207;23;20376;-66
2021/03/10 04:48:52;;;;;;;0.00;0.00;;;3.90;1.00;;;;;;6214134;23;20680;-65
2021/03/10 04:51:18;;;;;;;0.00;0.00;;;3.90;1.00;;;;;;6214519;23;20375;-67
2021/03/10 04:53:45;;;;;;;0.00;0.00;;;3.90;1.00;;;;;;6214489;23;20383;-66
2021/03/10 04:56:11;;;;;;;0.00;0.00;;;3.90;1.00;;;;;;6214732;23;20375;-66
2021/03/10 04:58:37;;;;;;;0.00;0.00;;;3.90;1.00;;;;;;6214240;23;20384;-66
2021/03/10 05:01:03;;;;;;;0.00;0.00;;;3.90;1.00;;;;;;6214759;23;20399;-66
2021/03/10 05:03:30;;;;;;;0.00;0.00;;;3.90;1.00;;;;;;6214114;23;20429;-66
2021/03/10 05:05:56;;;;;;;0.00;0.00;;;3.90;1.00;;;;;;6214628;23;20376;-66
2021/03/10 05:08:22;;;;;;;0.00;0.00;;;3.90;1.00;;;;;;6213912;23;20368;-67
2021/03/10 05:10:49;;;;;;;0.00;0.00;;;3.90;1.00;;;;;;6214423;23;20375;-67
2021/03/10 05:13:15;;;;;;;0.00;0.00;;;3.90;1.00;;;;;;6211061;23;20375;-66
2021/03/10 05:15:41;;;;;;;0.00;0.00;;;3.90;1.00;;;;;;6214074;23;20378;-66
2021/03/10 05:18:07;;;;;;;0.00;0.00;;;3.90;1.00;;;;;;6213661;23;20734;-66
2021/03/10 05:20:34;;;;;;;0.00;0.00;;;3.80;1.00;;;;;;6213666;23;20379;-65
2021/03/10 05:23:00;;;;;;;0.00;0.00;;;3.80;1.00;;;;;;6214138;23;20367;-67
2021/03/10 05:25:27;;;;;;;0.00;0.00;;;3.70;1.00;;;;;;6213508;23;20896;-67
2021/03/10 05:27:53;;;;;;;0.00;0.00;;;3.60;1.00;;;;;;6213642;23;20797;-66
2021/03/10 05:30:20;;;;;;;0.00;0.00;;;3.60;1.00;;;;;;6213929;23;20375;-66
2021/03/10 05:32:46;;;;;;;0.00;0.00;;;3.60;1.00;;;;;;6213796;23;20398;-68
2021/03/10 05:35:13;;;;;;;0.00;0.00;;;3.50;1.00;;;;;;6214198;23;20379;-65
2021/03/10 05:37:41;;;;;;;0.00;0.00;;;3.50;1.00;;;;;;6213441;23;20546;-66
2021/03/10 05:40:08;;;;;;;0.00;0.00;;;3.50;1.00;;;;;;6213988;23;20455;-67
2021/03/10 05:42:39;;;;;;;0.00;0.00;;;3.50;1.00;;;;;;6213834;23;20375;-65
2021/03/10 05:45:07;;;;;;;0.00;0.00;;;3.50;1.00;;;;;;6213972;23;20434;-67
2021/03/10 05:47:33;;;;;;;0.00;0.00;;;3.40;1.00;;;;;;6213270;23;20393;-66
2021/03/10 05:49:59;;;;;;;0.00;0.00;;;3.40;1.00;;;;;;6213923;23;20375;-67
2021/03/10 05:52:26;;;;;;;0.00;0.00;;;3.40;1.00;;;;;;6213974;23;20375;-67
2021/03/10 05:54:54;;;;;;;0.00;0.00;;;3.40;1.00;;;;;;6213932;23;20375;-66
2021/03/10 05:57:20;;;;;;;0.00;0.00;;;3.40;1.00;;;;;;6213418;23;20414;-66
2021/03/10 05:59:47;;;;;;;0.00;0.00;;;3.40;1.00;;;;;;6213199;23;20379;-67
2021/03/10 06:02:13;;;;;;;0.00;0.00;;;3.40;1.00;;;;;;6213895;23;20375;-66
2021/03/10 06:04:40;;;;;;;0.00;0.00;;;3.40;1.00;;;;;;6213776;23;20375;-66
2021/03/10 06:07:18;;;;;;;0.00;0.00;;;3.40;1.00;;;;;;6213769;23;20676;-65
2021/03/10 06:09:56;;;;;;;0.00;0.00;;;3.50;1.00;;;;;;6213302;23;20680;-69
2021/03/10 06:12:22;;;;;;;0.00;0.00;;;3.50;1.00;;;;;;6213766;23;20379;-67
2021/03/10 06:14:59;;;;;;;0.00;0.00;;;3.60;1.00;;;;;;6213745;23;20496;-66
2021/03/10 06:17:25;;;;;;;0.00;0.00;;;3.60;1.00;;;;;;6213178;23;20383;-66
2021/03/10 06:19:52;;;;;;;0.00;0.00;;;3.60;1.00;;;;;;6213654;23;20796;-67
2021/03/10 06:22:19;;;;;;;0.00;0.00;;;3.60;1.00;;;;;;6213542;23;20371;-66
2021/03/10 06:24:50;;;;;;;0.00;0.00;;;3.60;1.00;;;;;;6213305;23;20382;-65
2021/03/10 06:27:22;;;;;;;0.00;0.00;;;3.60;1.00;;;;;;6212857;23;20372;-68
2021/03/10 06:29:55;;;;;;;0.00;0.00;;;3.70;1.00;;;;;;6213976;23;20445;-67
2021/03/10 06:32:21;;;;;;;0.00;0.00;;;3.70;1.00;;;;;;6214512;23;20426;-66
2021/03/10 06:34:49;;;;;;;0.00;0.00;;;3.80;1.00;;;;;;6213913;23;20450;-65
2021/03/10 06:37:25;;;;;;;0.00;0.00;;;3.80;1.00;;;;;;6213077;23;20396;-65
2021/03/10 06:39:52;;;;;;;0.00;0.00;;;3.80;1.00;;;;;;6215594;23;20406;-65
2021/03/10 06:42:19;;;;;;;0.00;0.00;;;3.90;1.00;;;;;;6214426;23;20375;-65
2021/03/10 06:44:50;;;;;;;0.00;0.00;;;4.00;1.00;;;;;;6215898;23;20462;-66
2021/03/10 06:47:17;;;;;;;0.00;0.00;;;4.00;1.00;;;;;;6214354;23;20726;-66
2021/03/10 06:49:50;;;;;;;0.00;0.00;;;4.10;1.00;;;;;;6214452;23;20376;-71
2021/03/10 06:52:16;;;;;;;0.00;0.00;;;4.00;1.00;;;;;;6214364;23;20376;-66
2021/03/10 06:54:54;;;;;;;0.00;0.00;;;4.10;1.00;;;;;;6213359;23;20989;-65
2021/03/10 06:57:21;;;;;;;0.00;0.00;;;4.00;1.00;;;;;;6212909;23;20885;-66
2021/03/10 06:59:48;;;;;;;0.00;0.00;;;4.00;1.00;;;;;;6213844;23;20375;-66
2021/03/10 07:02:16;;;;;;;0.00;0.00;;;4.10;1.00;;;;;;6213202;23;20387;-67
2021/03/10 07:04:43;;;;;;;0.00;0.00;;;4.20;1.00;;;;;;6213357;23;20386;-66
2021/03/10 07:07:10;;;;;;;0.00;0.00;;;4.20;1.00;;;;;;6212786;23;20367;-67
2021/03/10 07:09:37;;;;;;;0.00;0.00;;;4.20;1.00;;;;;;6212979;23;20865;-66
2021/03/10 07:12:04;;;;;;;0.00;0.00;;;4.30;1.00;;;;;;6213049;23;20876;-67
2021/03/10 07:14:31;;;;;;;0.00;0.00;;;4.40;1.00;;;;;;6213325;23;20425;-68
2021/03/10 07:16:57;;;;;;;0.00;0.00;;;4.50;1.00;;;;;;6213166;23;20429;-64
2021/03/10 07:19:23;;;;;;;0.00;0.00;;;4.50;1.00;;;;;;6213411;23;20475;-65
2021/03/10 07:21:54;;;;;;;0.00;0.00;;;4.60;1.00;;;;;;6213192;23;20864;-66
2021/03/10 07:24:26;;;;;;;0.00;0.00;;;4.60;1.00;;;;;;6213082;23;20375;-67
2021/03/10 07:26:57;;;;;;;0.00;0.00;;;4.70;1.00;;;;;;6212401;23;20849;-66
2021/03/10 07:29:24;;;;;;;0.00;0.00;;;4.80;1.00;;;;;;6212661;23;20858;-66
2021/03/10 07:31:59;;;;;;;0.00;0.00;;;4.80;1.00;;;;;;6213257;23;20415;-67
2021/03/10 07:34:26;;;;;;;0.00;0.00;;;4.80;1.00;;;;;;6213066;23;20383;-66
2021/03/10 07:36:52;;;;;;;0.00;0.00;;;4.90;1.00;;;;;;6212798;23;20375;-67
2021/03/10 07:39:24;;;;;;;0.00;0.00;;;4.90;1.00;;;;;;6213034;23;20698;-67
2021/03/10 07:41:50;;;;;;;0.00;0.00;;;5.00;1.00;;;;;;6212585;23;20414;-66
2021/03/10 07:44:19;;;;;;;0.00;0.00;;;5.00;1.00;;;;;;6213001;23;20885;-67
2021/03/10 07:46:46;;;;;;;0.00;0.00;;;4.90;1.00;;;;;;6212851;23;20380;-72
2021/03/10 07:49:22;;;;;;;0.00;0.00;;;4.90;99.90;;;;;;6213329;23;20372;-69
2021/03/10 07:51:49;;;;;;;0.00;0.00;;;4.90;99.90;;;;;;6213352;23;20425;-66
2021/03/10 07:54:23;;;;;;;0.00;0.00;;;4.90;99.90;;;;;;6213532;23;20467;-67
2021/03/10 07:56:50;;;;;;;0.00;0.00;;;5.00;99.90;;;;;;6213355;23;20883;-66
2021/03/10 07:59:17;;;;;;;0.00;0.00;;;5.00;99.90;;;;;;6216151;23;20410;-66
2021/03/10 08:01:43;;;;;;;0.00;0.00;;;5.10;99.90;;;;;;6215295;23;20448;-66
2021/03/10 08:04:11;;;;;;;0.00;0.00;;;5.10;99.90;;;;;;6216543;23;20433;-66
2021/03/10 08:06:43;;;;;;;0.00;0.00;;;5.20;99.90;;;;;;6215730;23;20706;-66
2021/03/10 08:09:09;;;;;;;0.00;0.00;;;5.30;99.90;;;;;;6214853;23;20414;-67
2021/03/10 08:11:37;;;;;;;0.00;0.00;;;5.40;99.90;;;;;;6215443;23;20375;-66
2021/03/10 08:14:04;;;;;;;0.00;0.00;;;5.40;99.90;;;;;;6214539;23;20467;-66
2021/03/10 08:16:41;;;;;;;0.00;0.00;;;5.40;99.90;;;;;;6214724;23;20376;-66
2021/03/10 08:19:08;;;;;;;0.00;0.00;;;5.40;99.90;;;;;;6214075;23;20731;-65
2021/03/10 08:21:34;;;;;;;0.00;0.00;;;5.40;99.90;;;;;;6214630;23;20378;-66
2021/03/10 08:24:01;;;;;;;0.00;0.00;;;5.40;99.90;;;;;;6214892;23;20382;-65
2021/03/10 08:26:27;;;;;;;0.00;0.00;;;5.50;99.90;;;;;;6214967;23;20368;-69
2021/03/10 08:28:54;;;;;;;0.00;0.00;;;5.60;99.90;;;;;;6213664;23;20379;-67
2021/03/10 08:31:20;;;;;;;0.00;0.00;;;5.50;99.90;;;;;;6215098;23;20429;-66
2021/03/10 08:33:46;;;;;;;0.00;0.00;;;5.70;99.90;;;;;;6214558;23;20379;-67
2021/03/10 08:36:13;;;;;;;0.00;0.00;;;5.70;99.90;;;;;;6214804;23;20406;-66
2021/03/10 08:38:40;;;;;;;0.00;0.00;;;5.90;99.90;;;;;;6213984;23;20392;-66
2021/03/10 08:41:07;;;;;;;0.00;0.00;;;6.00;99.90;;;;;;6214538;23;20379;-67
2021/03/10 08:43:34;;;;;;;0.00;0.00;;;6.10;99.90;;;;;;6214078;23;20384;-68
2021/03/10 08:46:02;;;;;;;0.00;0.00;;;6.10;99.90;;;;;;6215027;23;20699;-67
2021/03/10 08:48:32;;;;;;;0.00;0.00;;;6.20;99.90;;;;;;6214152;23;20394;-66
2021/03/10 08:51:01;;;;;;;0.00;0.00;;;6.10;99.90;;;;;;6214769;23;20428;-66
2021/03/10 08:53:27;;;;;;;0.00;0.00;;;6.10;99.90;;;;;;6214311;23;20677;-67
2021/03/10 08:55:53;;;;;;;0.00;0.00;;;6.10;99.90;;;;;;6214469;23;20380;-66
2021/03/10 08:58:20;;;;;;;0.00;0.00;;;6.10;99.90;;;;;;6214046;23;20387;-66
2021/03/10 09:00:46;;;;;;;0.00;0.00;;;6.10;99.90;;;;;;6214513;23;20383;-67
2021/03/10 09:03:14;;;;;;;0.00;0.00;;;6.20;99.90;;;;;;6214360;23;20372;-67
2021/03/10 09:05:41;;;;;;;0.00;0.00;;;6.30;99.90;;;;;;6214411;23;20380;-66
2021/03/10 09:08:08;;;;;;;0.00;0.00;;;6.40;99.90;;;;;;6214143;23;20402;-66
2021/03/10 09:10:35;;;;;;;0.00;0.00;;;6.30;99.90;;;;;;6214097;23;20419;-66
2021/03/10 09:13:02;;;;;;;0.00;0.00;;;6.40;99.90;;;;;;6214256;23;20375;-67
2021/03/10 09:15:31;;;;;;;0.00;0.00;;;6.50;99.90;;;;;;6214157;23;20897;-69
2021/03/10 09:18:01;;;;;;;0.00;0.00;;;6.60;99.90;;;;;;6214701;23;20402;-67
2021/03/10 09:20:33;;;;;;;0.00;0.00;;;6.70;99.90;;;;;;6213769;23;20908;-67
2021/03/10 09:23:00;;;;;;;0.00;0.00;;;6.70;99.90;;;;;;6214263;23;20384;-66
2021/03/10 09:25:27;;;;;;;0.00;0.00;;;6.80;99.90;;;;;;6214485;23;20372;-65
2021/03/10 09:28:05;;;;;;;0.00;0.00;;;6.90;99.90;;;;;;6214316;23;20418;-65
2021/03/10 09:30:35;;;;;;;0.00;0.00;;;6.90;99.90;;;;;;6214408;23;20399;-68
2021/03/10 09:33:02;;;;;;;0.00;0.00;;;7.00;99.90;;;;;;6214352;23;20378;-66
2021/03/10 09:35:30;;;;;;;0.00;0.00;;;7.10;99.90;;;;;;6214338;23;20376;-65
2021/03/10 09:37:58;;;;;;;0.00;0.00;;;7.00;99.90;;;;;;6213645;23;20791;-66
2021/03/10 09:40:34;;;;;;;0.00;0.00;;;7.10;99.90;;;;;;6214200;23;20371;-66
2021/03/10 09:43:02;;;;;;;0.00;0.00;;;7.20;99.90;;;;;;6213933;23;20467;-66
2021/03/10 09:45:30;;;;;;;0.00;0.00;;;7.20;99.90;;;;;;6214297;23;20446;-65
2021/03/10 09:47:58;;;;;;;0.00;0.00;;;7.20;99.90;;;;;;6213657;23;20426;-66
2021/03/10 09:50:26;;;;;;;0.00;0.00;;;7.20;99.90;;;;;;6214458;23;20388;-66
2021/03/10 09:52:52;;;;;;;0.00;0.00;;;7.20;99.90;;;;;;6214188;23;20376;-66
2021/03/10 09:55:21;;;;;;;0.00;0.00;;;7.30;99.90;;;;;;6213338;23;20437;-66
2021/03/10 09:57:47;;;;;;;0.00;0.00;;;7.30;99.90;;;;;;6211607;23;20400;-67
2021/03/10 10:00:21;;;;;;;0.00;0.00;;;7.50;99.90;;;;;;6212030;23;20375;-66
2021/03/10 10:02:48;;;;;;;0.00;0.00;;;7.60;99.90;;;;;;6214020;23;20402;-66
2021/03/10 10:05:26;;;;;;;0.00;0.00;;;7.70;99.90;;;;;;6214537;23;20770;-67
2021/03/10 10:07:53;;;;;;;0.00;0.00;;;7.80;99.90;;;;;;6213039;23;20874;-68
2021/03/10 10:10:19;;;;;;;0.00;0.00;;;7.80;99.90;;;;;;6213543;23;20774;-66
2021/03/10 10:12:47;;;;;;;0.00;0.00;;;8.00;99.90;;;;;;6212937;23;20380;-68
2021/03/10 10:15:15;;;;;;;0.00;0.00;;;8.00;99.90;;;;;;6212937;23;20388;-66
2021/03/10 10:17:43;;;;;;;0.00;0.00;;;8.10;99.90;;;;;;6213666;23;20388;-66
2021/03/10 10:20:11;;;;;;;0.00;0.00;;;8.10;99.90;;;;;;6213133;23;20447;-66
2021/03/10 10:22:38;;;;;;;0.00;0.00;;;8.20;99.90;;;;;;6214539;23;20379;-66
2021/03/10 10:25:06;;;;;;;0.00;0.00;;;8.20;99.90;;;;;;6213880;23;20380;-66
2021/03/10 10:27:32;;;;;;;0.00;0.00;;;8.30;99.90;;;;;;6213534;23;20443;-69
2021/03/10 10:29:58;;;;;;;0.00;0.00;;;8.20;99.90;;;;;;6213685;23;20389;-68
2021/03/10 10:32:25;;;;;;;0.00;0.00;;;8.40;99.90;;;;;;6214065;23;20379;-67
2021/03/10 10:34:51;;;;;;;0.00;0.00;;;8.60;99.90;;;;;;6213806;23;20380;-66
2021/03/10 10:37:17;;;;;;;0.00;0.00;;;8.90;99.90;;;;;;6213861;23;20390;-65
2021/03/10 10:39:45;;;;;;;0.00;0.00;;;9.00;99.90;;;;;;6214555;23;20699;-65
2021/03/10 10:42:11;;;;;;;0.00;0.00;;;9.00;99.90;;;;;;6214275;23;20376;-66
2021/03/10 10:44:38;;;;;;;0.00;0.00;;;9.00;99.90;;;;;;6214305;23;20384;-66
2021/03/10 10:47:04;;;;;;;0.00;0.00;;;9.10;99.90;;;;;;6213031;23;20388;-66
2021/03/10 10:49:30;;;;;;;0.00;0.00;;;9.00;99.90;;;;;;6213385;23;20719;-66
2021/03/10 10:51:56;;;;;;;0.00;0.00;;;9.00;99.90;;;;;;6213298;23;20376;-66
2021/03/10 10:54:23;;;;;;;0.00;0.00;;;9.10;99.90;;;;;;6213430;23;20380;-66
2021/03/10 10:56:51;;;;;;;0.00;0.00;;;9.20;99.90;;;;;;6212001;23;20383;-66
2021/03/10 10:59:17;;;;;;;0.00;0.00;;;9.20;99.90;;;;;;6212699;23;20388;-67
2021/03/10 11:01:43;;;;;;;0.00;0.00;;;9.20;99.90;;;;;;6213446;23;20405;-69
2021/03/10 11:04:10;;;;;;;0.00;0.00;;;9.10;99.90;;;;;;6213469;23;20399;-66
2021/03/10 11:06:36;;;;;;;0.00;0.00;;;8.90;99.90;;;;;;6213187;23;20406;-66
2021/03/10 11:09:03;;;;;;;0.00;0.00;;;9.00;99.90;;;;;;6211070;23;20390;-67
2021/03/10 11:11:29;;;;;;;0.00;0.00;;;9.20;99.90;;;;;;6213410;23;20415;-65
2021/03/10 11:13:56;;;;;;;0.00;0.00;;;9.20;99.90;;;;;;6212808;23;20425;-65
2021/03/10 11:16:23;;;;;;;0.00;0.00;;;9.20;99.90;;;;;;6212662;23;20380;-66
2021/03/10 11:18:50;;;;;;;0.00;0.00;;;9.30;99.90;;;;;;6212310;23;20395;-66
2021/03/10 11:21:16;;;;;;;0.00;0.00;;;9.40;99.90;;;;;;6213405;23;20430;-66
2021/03/10 11:23:42;;;;;;;0.00;0.00;;;9.30;99.90;;;;;;6213387;23;20372;-66
2021/03/10 11:26:08;;;;;;;0.00;0.00;;;9.10;99.90;;;;;;6213406;23;20437;-66
2021/03/10 11:28:34;;;;;;;0.00;0.00;;;9.20;99.90;;;;;;6212936;23;20364;-66
2021/03/10 11:31:02;;;;;;;0.00;0.00;;;9.40;99.90;;;;;;6212930;23;20375;-67
2021/03/10 11:33:28;;;;;;;0.00;0.00;;;9.50;99.90;;;;;;6213229;23;20380;-69
2021/03/10 11:35:54;;;;;;;0.00;0.00;;;9.70;99.90;;;;;;6213149;23;20379;-69
2021/03/10 11:38:20;;;;;;;0.00;0.00;;;9.80;99.90;;;;;;6212714;23;20391;-69
2021/03/10 11:40:47;;;;;;;0.00;0.00;;;9.80;99.90;;;;;;6213259;23;20707;-67
2021/03/10 11:43:16;;;;;;;0.00;0.00;;;9.80;99.90;;;;;;6213520;23;20382;-66
2021/03/10 11:45:42;;;;;;;0.00;0.00;;;9.80;99.90;;;;;;6212950;23;20375;-66
2021/03/10 11:48:10;;;;;;;0.00;0.00;;;9.90;99.90;;;;;;6212942;23;20425;-68
2021/03/10 11:50:37;;;;;;;0.00;0.00;;;10.00;99.90;;;;;;6212871;23;20426;-66
2021/03/10 11:53:03;;;;;;;0.00;0.00;;;10.10;99.90;;;;;;6213246;23;20387;-66
2021/03/10 11:55:30;;;;;;;0.00;0.00;;;10.10;99.90;;;;;;6212860;23;20371;-65
2021/03/10 11:57:56;;;;;;;0.00;0.00;;;10.30;99.90;;;;;;6212554;23;20384;-66
2021/03/10 12:00:23;;;;;;;0.00;0.00;;;10.30;99.90;;;;;;6212710;23;20730;-66
2021/03/10 12:02:49;;;;;;;0.00;0.00;;;10.40;99.90;;;;;;6212947;23;20387;-66
2021/03/10 12:05:17;;;;;;;0.00;0.00;;;10.40;99.90;;;;;;6212974;23;20398;-66
2021/03/10 12:07:43;;;;;;;0.00;0.00;;;10.20;99.90;;;;;;6212758;23;20734;-66
2021/03/10 12:10:10;;;;;;;0.00;0.00;;;10.30;99.90;;;;;;6212833;23;20383;-67
2021/03/10 12:12:37;;;;;;;0.00;0.00;;;10.00;99.90;;;;;;6212376;23;20921;-69
2021/03/10 12:15:04;;;;;;;0.00;0.00;;;10.00;99.90;;;;;;6212575;23;20711;-66
2021/03/10 12:17:31;;;;;;;0.00;0.00;;;10.10;99.90;;;;;;6212193;23;20372;-66
2021/03/10 12:19:57;;;;;;;0.00;0.00;;;10.30;99.90;;;;;;6212425;23;20386;-66
2021/03/10 12:22:24;;;;;;;0.00;0.00;;;10.30;99.90;;;;;;6212535;23;20372;-67
2021/03/10 12:24:50;;;;;;;0.00;0.00;;;10.40;99.90;;;;;;6212864;23;20684;-66
2021/03/10 12:27:23;;;;;;;0.00;0.00;;;10.40;99.90;;;;;;6212490;23;20378;-67
2021/03/10 12:29:49;;;;;;;0.00;0.00;;;10.50;99.90;;;;;;6213098;23;20402;-66
2021/03/10 12:32:15;;;;;;;0.00;0.00;;;10.30;99.90;;;;;;6212755;23;20383;-67
2021/03/10 12:34:42;;;;;;;0.00;0.00;;;10.50;99.90;;;;;;6213021;23;20372;-67
2021/03/10 12:37:09;;;;;;;0.00;0.00;;;10.50;99.90;;;;;;6212401;23;20384;-67
2021/03/10 12:39:36;;;;;;;0.00;0.00;;;10.50;99.90;;;;;;6212631;23;20398;-65
2021/03/10 12:42:02;;;;;;;0.00;0.00;;;10.50;99.90;;;;;;6213012;23;20470;-66
2021/03/10 12:44:28;;;;;;;0.00;0.00;;;10.70;99.90;;;;;;6214371;23;20383;-66
2021/03/10 12:46:54;;;;;;;0.00;0.00;;;10.70;99.90;;;;;;6214371;23;20371;-69
2021/03/10 12:49:20;;;;;;;0.00;0.00;;;10.60;99.90;;;;;;6214656;23;20371;-65
2021/03/10 12:51:47;;;;;;;0.00;0.00;;;10.60;99.90;;;;;;6214824;23;20379;-66
2021/03/10 12:54:13;;;;;;;0.00;0.00;;;10.60;99.90;;;;;;6214654;23;20443;-67
2021/03/10 12:56:40;;;;;;;0.00;0.00;;;10.70;99.90;;;;;;6214465;23;20383;-65
2021/03/10 12:59:06;;;;;;;0.00;0.00;;;10.80;99.90;;;;;;6214357;23;20387;-67
2021/03/10 13:01:32;;;;;;;0.00;0.00;;;10.80;99.90;;;;;;6214897;23;20383;-67
2021/03/10 13:03:58;;;;;;;0.00;0.00;;;10.70;99.90;;;;;;6214578;23;20449;-65